createdAt,value
2022-10-26T00:02:06.588Z,60.9
2022-10-26T00:04:33.249Z,60.9
2022-10-26T00:06:59.833Z,60.8
2022-10-26T00:09:26.449Z,60.8
2022-10-26T00:11:53.147Z,60.8
2022-10-26T00:14:19.699Z,60.8
2022-10-26T00:16:46.328Z,60.6
2022-10-26T00:19:12.953Z,60.6
2022-10-26T00:21:38.070Z,60.5
2022-10-26T00:24:04.696Z,60.5
2022-10-26T00:26:31.315Z,60.5
2022-10-26T00:28:57.949Z,60.5
2022-10-26T00:31:24.590Z,60.5
2022-10-26T00:33:51.217Z,60.5
2022-10-26T00:36:17.903Z,60.5
2022-10-26T00:38:44.433Z,60.5
2022-10-26T00:41:11.055Z,60.5
2022-10-26T00:43:37.682Z,60.5
2022-10-26T00:46:04.313Z,60.5
2022-10-26T00:48:30.945Z,60.5
2022-10-26T00:50:57.563Z,60.5
2022-10-26T00:53:22.675Z,60.5
2022-10-26T00:55:49.311Z,60.4
2022-10-26T00:58:15.926Z,60.3
2022-10-26T01:00:42.594Z,60.2
2022-10-26T01:03:09.232Z,60.2
2022-10-26T01:05:35.802Z,60.2
2022-10-26T01:08:02.418Z,60.2
2022-10-26T01:10:29.046Z,60.1
2022-10-26T01:12:55.676Z,60.1
2022-10-26T01:15:22.296Z,60.1
2022-10-26T01:17:48.957Z,60.1
2022-10-26T01:20:15.534Z,60
2022-10-26T01:22:42.168Z,60
2022-10-26T01:25:08.778Z,60
2022-10-26T01:27:33.921Z,60
2022-10-26T01:30:00.565Z,59.9
2022-10-26T01:32:27.152Z,59.9
2022-10-26T01:34:53.794Z,60
2022-10-26T01:37:20.413Z,59.9
2022-10-26T01:39:47.033Z,59.9
2022-10-26T01:42:13.662Z,59.9
2022-10-26T01:44:40.267Z,59.9
2022-10-26T01:47:06.892Z,59.9
2022-10-26T01:49:33.520Z,59.9
2022-10-26T01:52:00.161Z,59.9
2022-10-26T01:54:26.772Z,59.9
2022-10-26T01:56:53.405Z,59.8
2022-10-26T01:59:18.581Z,59.8
2022-10-26T02:01:45.153Z,59.8
2022-10-26T02:04:11.776Z,59.8
2022-10-26T02:06:38.400Z,59.8
2022-10-26T02:09:05.019Z,59.8
2022-10-26T02:11:31.647Z,59.8
2022-10-26T02:13:58.255Z,59.9
2022-10-26T02:16:24.906Z,59.9
2022-10-26T02:18:51.506Z,59.8
2022-10-26T02:21:18.146Z,59.8
2022-10-26T02:23:44.755Z,59.8
2022-10-26T02:26:11.386Z,59.8
2022-10-26T02:28:38.002Z,59.8
2022-10-26T02:31:03.134Z,59.8
2022-10-26T02:33:29.754Z,59.8
2022-10-26T02:35:56.364Z,59.8
2022-10-26T02:38:23.002Z,59.9
2022-10-26T02:40:49.623Z,59.9
2022-10-26T02:43:16.252Z,59.9
2022-10-26T02:45:42.898Z,60
2022-10-26T02:48:09.490Z,60
2022-10-26T02:50:36.116Z,60
2022-10-26T02:53:02.724Z,60
2022-10-26T02:55:29.391Z,59.9
2022-10-26T02:57:55.995Z,59.9
2022-10-26T03:00:22.643Z,59.9
2022-10-26T03:02:49.250Z,59.8
2022-10-26T03:05:14.368Z,59.8
2022-10-26T03:07:40.995Z,59.8
2022-10-26T03:10:07.612Z,59.8
2022-10-26T03:12:34.229Z,59.7
2022-10-26T03:15:00.941Z,59.7
2022-10-26T03:17:27.475Z,59.8
2022-10-26T03:19:54.091Z,59.9
2022-10-26T03:22:20.742Z,59.9
2022-10-26T03:24:45.926Z,59.9
2022-10-26T03:27:12.478Z,59.8
2022-10-26T03:29:39.100Z,59.7
2022-10-26T03:32:05.720Z,59.7
2022-10-26T03:34:32.380Z,59.7
2022-10-26T03:36:58.984Z,59.6
2022-10-26T03:39:25.592Z,59.6
2022-10-26T03:41:52.220Z,59.6
2022-10-26T03:44:18.828Z,59.5
2022-10-26T03:46:45.452Z,59.5
2022-10-26T03:49:12.078Z,59.4
2022-10-26T03:51:38.714Z,59.4
2022-10-26T03:54:05.326Z,59.4
2022-10-26T03:56:30.464Z,59.3
2022-10-26T03:58:57.075Z,59.3
2022-10-26T04:01:23.710Z,59.2
2022-10-26T04:06:16.978Z,59
2022-10-26T04:08:43.586Z,58.9
2022-10-26T04:11:10.201Z,58.9
2022-10-26T04:13:36.838Z,58.9
2022-10-26T04:16:03.441Z,58.8
2022-10-26T04:18:30.071Z,58.8
2022-10-26T04:20:56.722Z,59
2022-10-26T04:23:23.328Z,59
2022-10-26T04:25:50.027Z,59
2022-10-26T04:28:15.136Z,59
2022-10-26T04:30:41.711Z,58.9
2022-10-26T04:33:08.330Z,58.8
2022-10-26T04:35:34.946Z,58.8
2022-10-26T04:38:01.628Z,58.7
2022-10-26T04:40:28.172Z,58.6
2022-10-26T04:42:54.818Z,58.5
2022-10-26T04:45:21.434Z,58.5
2022-10-26T04:47:48.127Z,58.5
2022-10-26T04:50:14.688Z,58.4
2022-10-26T04:52:41.309Z,58.5
2022-10-26T04:55:07.952Z,58.4
2022-10-26T04:57:34.560Z,58.4
2022-10-26T04:59:59.686Z,58.4
2022-10-26T05:02:26.303Z,58.4
2022-10-26T05:04:52.929Z,58.4
2022-10-26T05:07:19.559Z,58.5
2022-10-26T05:12:12.823Z,58.5
2022-10-26T05:14:39.426Z,58.5
2022-10-26T05:17:06.104Z,58.5
2022-10-26T05:19:32.665Z,58.5
2022-10-26T05:21:59.338Z,58.5
2022-10-26T05:24:25.915Z,58.4
2022-10-26T05:26:52.554Z,58.5
2022-10-26T05:29:19.195Z,58.3
2022-10-26T05:31:44.288Z,58.3
2022-10-26T05:34:10.910Z,58.4
2022-10-26T05:36:37.567Z,58.4
2022-10-26T05:39:04.161Z,58.3
2022-10-26T05:41:31.085Z,58.3
2022-10-26T05:43:57.443Z,58.3
2022-10-26T05:46:24.025Z,58.3
2022-10-26T05:48:50.664Z,58.3
2022-10-26T05:51:17.282Z,58.4
2022-10-26T05:53:43.901Z,58.4
2022-10-26T05:56:10.566Z,58.3
2022-10-26T05:58:37.138Z,58.3
2022-10-26T06:01:03.825Z,58.3
2022-10-26T06:03:30.435Z,58.2
2022-10-26T06:05:55.534Z,58.2
2022-10-26T06:08:22.134Z,58.1
2022-10-26T06:10:48.804Z,58.1
2022-10-26T06:13:15.380Z,58.1
2022-10-26T06:18:08.673Z,58
2022-10-26T06:23:01.880Z,58
2022-10-26T06:25:28.500Z,57.9
2022-10-26T06:27:55.126Z,57.9
2022-10-26T06:30:21.764Z,57.8
2022-10-26T06:32:48.382Z,57.6
2022-10-26T06:35:15.022Z,57.6
2022-10-26T06:37:40.722Z,57.6
2022-10-26T06:40:06.754Z,57.6
2022-10-26T06:42:33.367Z,57.5
2022-10-26T06:44:59.994Z,57.5
2022-10-26T06:47:26.618Z,57.4
2022-10-26T06:49:53.240Z,57.4
2022-10-26T06:52:19.863Z,57.3
2022-10-26T06:54:46.506Z,57.3
2022-10-26T06:57:13.115Z,57.2
2022-10-26T06:59:39.730Z,57.2
2022-10-26T07:02:06.406Z,57.1
2022-10-26T07:04:32.998Z,57.1
2022-10-26T07:06:59.616Z,57.1
2022-10-26T07:09:24.727Z,57
2022-10-26T07:11:51.391Z,57
2022-10-26T07:14:17.970Z,56.9
2022-10-26T07:16:44.603Z,56.9
2022-10-26T07:19:11.257Z,56.9
2022-10-26T07:21:37.886Z,56.8
2022-10-26T07:24:04.470Z,56.8
2022-10-26T07:26:31.090Z,56.8
2022-10-26T07:28:57.718Z,56.7
2022-10-26T07:31:24.369Z,56.7
2022-10-26T07:33:50.969Z,56.7
2022-10-26T07:36:17.590Z,56.6
2022-10-26T07:38:44.214Z,56.6
2022-10-26T07:41:09.336Z,56.6
2022-10-26T07:43:35.961Z,56.6
2022-10-26T07:46:02.586Z,56.5
2022-10-26T07:48:29.210Z,56.5
2022-10-26T07:50:55.829Z,56.5
2022-10-26T07:53:22.448Z,56.3
2022-10-26T07:55:49.092Z,56.3
2022-10-26T07:58:15.781Z,56.2
2022-10-26T08:00:42.327Z,56.2
2022-10-26T08:03:08.942Z,56.2
2022-10-26T08:05:35.571Z,56.1
2022-10-26T08:08:02.192Z,56.1
2022-10-26T08:10:28.815Z,56
2022-10-26T08:12:53.991Z,56
2022-10-26T08:15:20.580Z,55.9
2022-10-26T08:17:47.186Z,55.9
2022-10-26T08:20:13.812Z,55.8
2022-10-26T08:22:40.424Z,55.7
2022-10-26T08:25:07.052Z,55.6
2022-10-26T08:27:33.679Z,55.3
2022-10-26T08:30:00.306Z,54.9
2022-10-26T08:34:53.551Z,54.6
2022-10-26T08:37:20.181Z,55.4
2022-10-26T08:39:46.800Z,55.5
2022-10-26T08:42:13.455Z,55.7
2022-10-26T08:44:40.092Z,56.3
2022-10-26T08:47:05.194Z,56.4
2022-10-26T08:49:31.845Z,56.4
2022-10-26T08:51:58.433Z,56.2
2022-10-26T08:54:25.069Z,56.7
2022-10-26T08:56:51.700Z,57.5
2022-10-26T08:59:18.292Z,57.9
2022-10-26T09:01:44.910Z,57.7
2022-10-26T09:04:11.567Z,58.1
2022-10-26T09:09:04.792Z,61.3
2022-10-26T09:11:31.437Z,60.6
2022-10-26T09:13:58.022Z,58.9
2022-10-26T09:16:24.644Z,59
2022-10-26T09:18:49.854Z,60.1
2022-10-26T09:21:16.418Z,61.2
2022-10-26T09:23:43.020Z,61
2022-10-26T09:26:09.660Z,61
2022-10-26T09:28:36.265Z,60.7
2022-10-26T09:31:02.932Z,61.6
2022-10-26T09:33:29.554Z,64.4
2022-10-26T09:35:56.136Z,66.7
2022-10-26T09:38:22.753Z,65.8
2022-10-26T09:40:49.374Z,66.6
2022-10-26T09:43:16.018Z,73
2022-10-26T09:45:42.618Z,74.7
2022-10-26T09:48:09.238Z,80.5
2022-10-26T09:50:34.364Z,77.7
2022-10-26T09:53:00.990Z,79.8
2022-10-26T09:57:54.246Z,89.2
2022-10-26T10:00:20.852Z,86.8
2022-10-26T10:02:47.478Z,90.2
2022-10-26T10:05:14.109Z,89.5
2022-10-26T10:07:40.734Z,89
2022-10-26T10:10:07.360Z,94.6
2022-10-26T10:12:33.976Z,91.5
2022-10-26T10:15:00.663Z,92.6
2022-10-26T10:17:27.214Z,90
2022-10-26T10:22:20.483Z,97.8
2022-10-26T10:27:12.211Z,97.1
2022-10-26T10:29:37.344Z,100
2022-10-26T10:32:02.471Z,98.7
2022-10-26T10:34:29.089Z,98.9
2022-10-26T10:36:55.713Z,99.6
2022-10-26T10:41:48.958Z,97
2022-10-26T10:44:15.586Z,100
2022-10-26T10:46:42.088Z,98.1
2022-10-26T10:49:08.727Z,98
2022-10-26T10:51:35.330Z,99.8
2022-10-26T10:54:01.968Z,98.5
2022-10-26T10:56:28.572Z,99.1
2022-10-26T10:58:55.227Z,100
2022-10-26T11:01:21.809Z,99.4
2022-10-26T11:03:47.003Z,98
2022-10-26T11:06:13.605Z,99
2022-10-26T11:08:40.190Z,98.6
2022-10-26T11:11:06.833Z,98.7
2022-10-26T11:13:33.434Z,99.2
2022-10-26T11:16:00.057Z,99.5
2022-10-26T11:18:26.684Z,100
2022-10-26T11:20:53.302Z,99.6
2022-10-26T11:25:45.085Z,99.6
2022-10-26T11:28:10.189Z,99.8
2022-10-26T11:30:36.832Z,100
2022-10-26T11:33:01.942Z,99.5
2022-10-26T11:35:28.560Z,99.1
2022-10-26T11:37:53.737Z,99.6
2022-10-26T11:40:20.321Z,98.5
2022-10-26T11:42:46.937Z,96.3
2022-10-26T11:45:13.567Z,97.8
2022-10-26T11:47:40.184Z,95.6
2022-10-26T11:50:06.807Z,97.2
2022-10-26T11:52:33.432Z,98.1
2022-10-26T11:55:00.116Z,96.8
2022-10-26T11:57:26.773Z,97.2
2022-10-26T11:59:53.324Z,94.5
2022-10-26T12:02:19.912Z,92.5
2022-10-26T12:04:46.575Z,95
2022-10-26T12:07:13.171Z,91.7
2022-10-26T12:09:38.278Z,90.3
2022-10-26T12:14:31.540Z,92.6
2022-10-26T12:16:58.173Z,92.5
2022-10-26T12:19:24.820Z,91.6
2022-10-26T12:24:18.046Z,91.6
2022-10-26T12:29:11.256Z,90.6
2022-10-26T12:31:36.421Z,87.7
2022-10-26T12:34:03.124Z,84.2
2022-10-26T12:38:54.783Z,87.9
2022-10-26T12:41:21.446Z,89.2
2022-10-26T12:43:48.013Z,86.7
2022-10-26T12:46:14.651Z,87.2
2022-10-26T12:48:41.273Z,84.9
2022-10-26T12:53:34.518Z,86.2
2022-10-26T12:58:27.769Z,85.2
2022-10-26T13:00:54.378Z,87.3
2022-10-26T13:03:21.002Z,85.4
2022-10-26T13:08:12.760Z,88.3
2022-10-26T13:10:37.894Z,87
2022-10-26T13:13:03.010Z,87
2022-10-26T13:15:29.637Z,90.4
2022-10-26T13:17:56.266Z,90.6
2022-10-26T13:20:22.899Z,92.4
2022-10-26T13:22:49.507Z,93.5
2022-10-26T13:27:42.757Z,89.2
2022-10-26T13:32:36.028Z,92.8
2022-10-26T13:35:02.662Z,95.2
2022-10-26T13:37:29.268Z,93.5
2022-10-26T13:39:55.874Z,94.1
2022-10-26T13:42:22.539Z,94
2022-10-26T13:44:47.640Z,92.1
2022-10-26T13:47:14.240Z,93.4
2022-10-26T13:52:07.500Z,88.6
2022-10-26T13:54:34.117Z,88.4
2022-10-26T13:57:00.754Z,85.4
2022-10-26T13:59:27.365Z,84.3
2022-10-26T14:01:53.999Z,84.3
2022-10-26T14:04:20.738Z,85.3
2022-10-26T14:06:47.250Z,85.3
2022-10-26T14:09:13.841Z,88.1
2022-10-26T14:11:40.468Z,89.3
2022-10-26T14:14:07.088Z,91.4
2022-10-26T14:16:32.213Z,92.9
2022-10-26T14:21:25.458Z,93.2
2022-10-26T14:23:52.090Z,94.8
2022-10-26T14:26:18.706Z,95.2
2022-10-26T14:28:45.404Z,91.6
2022-10-26T14:31:11.965Z,89.5
2022-10-26T14:36:05.198Z,98.7
2022-10-26T14:38:31.823Z,98.1
2022-10-26T14:40:58.445Z,98.3
2022-10-26T14:43:25.099Z,99.2
2022-10-26T14:45:51.683Z,99.2
2022-10-26T14:50:43.433Z,99.5
2022-10-26T14:53:10.054Z,98.9
2022-10-26T14:55:36.679Z,99.1
2022-10-26T14:58:03.291Z,98.7
2022-10-26T15:00:29.920Z,98.1
2022-10-26T15:05:23.174Z,97.5
2022-10-26T15:07:49.805Z,95.8
2022-10-26T15:10:16.418Z,94.3
2022-10-26T15:12:43.032Z,93.5
2022-10-26T15:15:09.679Z,92.6
2022-10-26T15:20:02.919Z,89.7
2022-10-26T15:22:28.036Z,88.1
2022-10-26T15:24:54.653Z,87.6
2022-10-26T15:27:21.277Z,86.3
2022-10-26T15:29:47.894Z,87.2
2022-10-26T15:34:41.284Z,86
2022-10-26T15:37:07.802Z,86.3
2022-10-26T15:39:34.376Z,85
2022-10-26T15:42:01.013Z,86
2022-10-26T15:44:27.633Z,85.4
2022-10-26T15:49:20.891Z,83.4
2022-10-26T15:51:47.548Z,84.5
2022-10-26T15:54:12.709Z,82.6
2022-10-26T15:59:05.876Z,79.7
2022-10-26T16:01:32.489Z,79.4
2022-10-26T16:03:59.117Z,77.9
2022-10-26T16:06:25.740Z,78.3
2022-10-26T16:08:52.379Z,75.7
2022-10-26T16:11:19.017Z,73.7
2022-10-26T16:13:45.611Z,71.9
2022-10-26T16:18:38.849Z,72.1
2022-10-26T16:21:05.577Z,68.7
2022-10-26T16:23:32.097Z,67.6
2022-10-26T16:25:57.211Z,65.4
2022-10-26T16:28:23.849Z,65.4
2022-10-26T16:33:17.159Z,62.4
2022-10-26T16:35:43.728Z,64.8
2022-10-26T16:38:10.364Z,66.1
2022-10-26T16:40:36.960Z,65.5
2022-10-26T16:43:03.609Z,65.2
2022-10-26T16:45:30.220Z,65.4
2022-10-26T16:47:56.864Z,63.8
2022-10-26T16:50:23.453Z,61.9
2022-10-26T16:52:50.125Z,61.6
2022-10-26T16:55:16.691Z,61
2022-10-26T16:57:41.842Z,60.4
2022-10-26T17:00:08.776Z,60.4
2022-10-26T17:02:35.069Z,60.1
2022-10-26T17:05:01.693Z,59.9
2022-10-26T17:07:28.337Z,60.7
2022-10-26T17:09:53.489Z,61.9
2022-10-26T17:12:18.574Z,62.2
2022-10-26T17:14:45.205Z,62.1
2022-10-26T17:17:11.910Z,62.4
2022-10-26T17:19:38.512Z,62.5
2022-10-26T17:24:31.745Z,62.1
2022-10-26T17:26:58.350Z,61.7
2022-10-26T17:29:25.017Z,61.5
2022-10-26T17:31:51.686Z,61.4
2022-10-26T17:34:18.328Z,60.6
2022-10-26T17:36:44.858Z,60.4
2022-10-26T17:39:11.560Z,60.2
2022-10-26T17:41:38.041Z,60
2022-10-26T17:44:03.230Z,59.7
2022-10-26T17:48:56.415Z,59.9
2022-10-26T17:51:21.715Z,59.8
2022-10-26T17:53:46.674Z,59.8
2022-10-26T17:56:13.450Z,60
2022-10-26T17:58:40.048Z,60.3
2022-10-26T18:01:06.724Z,60.5
2022-10-26T18:03:33.161Z,60.7
2022-10-26T18:05:59.920Z,60.8
2022-10-26T18:08:26.566Z,61
2022-10-26T18:10:53.152Z,60.4
2022-10-26T18:13:19.834Z,60.1
2022-10-26T18:15:46.340Z,59.8
2022-10-26T18:18:11.513Z,59.7
2022-10-26T18:20:36.683Z,59.7
2022-10-26T18:23:03.168Z,59.6
2022-10-26T18:25:29.770Z,59.7
2022-10-26T18:27:56.464Z,59.8
2022-10-26T18:30:23.112Z,59.6
2022-10-26T18:32:49.677Z,59.6
2022-10-26T18:35:16.426Z,59.6
2022-10-26T18:37:42.994Z,59.4
2022-10-26T18:40:09.662Z,58.9
2022-10-26T18:42:36.150Z,59.1
2022-10-26T18:45:02.762Z,59.3
2022-10-26T18:47:28.030Z,59.3
2022-10-26T18:49:53.209Z,59.3
2022-10-26T18:52:19.699Z,59.6
2022-10-26T18:54:46.310Z,59.6
2022-10-26T18:57:13.056Z,59.6
2022-10-26T18:59:39.526Z,59.5
2022-10-26T19:02:06.239Z,59.5
2022-10-26T19:04:32.845Z,59.4
2022-10-26T19:06:59.436Z,59.5
2022-10-26T19:09:26.143Z,59.5
2022-10-26T19:11:52.779Z,59.6
2022-10-26T19:14:19.348Z,59.3
2022-10-26T19:16:45.989Z,59
2022-10-26T19:19:12.506Z,59
2022-10-26T19:21:37.625Z,59.2
2022-10-26T19:26:30.875Z,59.8
2022-10-26T19:28:57.494Z,59.9
2022-10-26T19:31:24.115Z,60
2022-10-26T19:33:50.728Z,59.8
2022-10-26T19:36:17.357Z,59.3
2022-10-26T19:38:43.985Z,59.1
2022-10-26T19:41:10.608Z,59.3
2022-10-26T19:43:37.246Z,59.6
2022-10-26T19:46:03.850Z,59.6
2022-10-26T19:48:28.981Z,59.5
2022-10-26T19:50:55.603Z,59.3
2022-10-26T19:53:22.229Z,59.1
2022-10-26T19:55:48.905Z,59.2
2022-10-26T19:58:15.471Z,59.6
2022-10-26T20:00:42.098Z,59.7
2022-10-26T20:03:08.719Z,59.9
2022-10-26T20:05:35.362Z,60
2022-10-26T20:08:01.985Z,60
2022-10-26T20:10:28.616Z,60
2022-10-26T20:12:55.213Z,60
2022-10-26T20:15:21.839Z,60.1
2022-10-26T20:17:48.455Z,60
2022-10-26T20:20:13.623Z,59.9
2022-10-26T20:22:40.214Z,60
2022-10-26T20:25:06.824Z,60
2022-10-26T20:27:33.447Z,60.1
2022-10-26T20:30:00.081Z,60.1
2022-10-26T20:32:26.706Z,60.1
2022-10-26T20:34:53.353Z,60.2
2022-10-26T20:37:19.951Z,60.3
2022-10-26T20:39:46.578Z,60.3
2022-10-26T20:42:13.185Z,60.3
2022-10-26T20:44:39.822Z,60.2
2022-10-26T20:47:06.434Z,60
2022-10-26T20:49:33.073Z,59.9
2022-10-26T20:51:58.187Z,59.9
2022-10-26T20:54:24.810Z,60.1
2022-10-26T20:56:51.436Z,60.3
2022-10-26T20:59:18.056Z,60.3
2022-10-26T21:01:44.695Z,60.3
2022-10-26T21:04:11.363Z,60.4
2022-10-26T21:06:37.918Z,60.5
2022-10-26T21:09:04.558Z,60.5
2022-10-26T21:11:31.166Z,60.5
2022-10-26T21:13:57.798Z,60.5
2022-10-26T21:16:24.442Z,60.4
2022-10-26T21:18:51.082Z,60.5
2022-10-26T21:21:17.651Z,60.5
2022-10-26T21:23:42.808Z,60.5
2022-10-26T21:26:09.417Z,60.4
2022-10-26T21:28:36.042Z,60.4
2022-10-26T21:31:02.663Z,60.4
2022-10-26T21:33:29.278Z,60.5
2022-10-26T21:35:55.902Z,60.5
2022-10-26T21:40:49.189Z,60.4
2022-10-26T21:43:15.772Z,60.3
2022-10-26T21:45:42.396Z,60.2
2022-10-26T21:48:09.011Z,60.2
2022-10-26T21:50:35.626Z,60.3
2022-10-26T21:53:02.263Z,60.5
2022-10-26T21:55:27.374Z,60.4
2022-10-26T21:57:54.009Z,60.4
2022-10-26T22:00:20.644Z,60.4
2022-10-26T22:02:47.273Z,60.3
2022-10-26T22:05:13.874Z,60.3
2022-10-26T22:07:40.549Z,60.3
2022-10-26T22:10:07.673Z,60.3
2022-10-26T22:12:33.745Z,60.4
2022-10-26T22:15:00.370Z,60.4
2022-10-26T22:17:26.995Z,60.4
2022-10-26T22:19:53.616Z,60.4
2022-10-26T22:22:20.275Z,60.1
2022-10-26T22:24:46.856Z,60
2022-10-26T22:27:11.989Z,60.2
2022-10-26T22:29:38.634Z,60.3
2022-10-26T22:32:05.279Z,60.4
2022-10-26T22:34:31.855Z,60.5
2022-10-26T22:36:58.482Z,60.5
2022-10-26T22:39:25.103Z,60.5
2022-10-26T22:41:51.727Z,60.6
2022-10-26T22:44:18.351Z,60.6
2022-10-26T22:46:45.004Z,60.7
2022-10-26T22:49:11.587Z,60.7
2022-10-26T22:51:38.203Z,60.7
2022-10-26T22:54:04.827Z,60.6
2022-10-26T22:56:31.462Z,60.7
2022-10-26T22:58:58.090Z,60.7
2022-10-26T23:01:23.207Z,60.8
2022-10-26T23:03:49.823Z,60.9
2022-10-26T23:06:16.456Z,61
2022-10-26T23:08:43.082Z,60.9
2022-10-26T23:11:09.716Z,60.9
2022-10-26T23:13:36.331Z,61
2022-10-26T23:16:02.953Z,61
2022-10-26T23:18:29.575Z,61
2022-10-26T23:20:56.185Z,61.1
2022-10-26T23:23:22.827Z,61.1
2022-10-26T23:25:49.445Z,61.1
2022-10-26T23:28:16.064Z,61
2022-10-26T23:30:42.680Z,60.9
2022-10-26T23:33:07.813Z,60.8
2022-10-26T23:35:34.474Z,60.8
2022-10-26T23:38:01.069Z,60.6
2022-10-26T23:40:27.684Z,60.4
2022-10-26T23:45:20.937Z,60.3
2022-10-26T23:47:47.561Z,60.3
2022-10-26T23:50:14.196Z,60.3
2022-10-26T23:52:40.798Z,60.2
2022-10-26T23:55:07.411Z,60.2
2022-10-26T23:57:34.042Z,60.2
